Time;durP1;ratioP1;P1;durP2;ratioP2;P2;SDS_P1;SDS_P2;PMS_P1;PMS_P2;Temp;Humidity;BMP_temperature;BMP_pressure;BME280_temperature;BME280_humidity;BME280_pressure;Samples;Min_cycle;Max_cycle;Signal;HPM_P1;HPM_P2
2021/07/14 00:01:32;;;;;;;2.85;1.98;;;15.50;99.90;;;;;;4938594;29;20302;-49
2021/07/14 00:04:01;;;;;;;2.72;1.65;;;15.50;99.90;;;;;;4938606;29;20303;-46
2021/07/14 00:06:36;;;;;;;1.90;1.60;;;15.50;99.90;;;;;;4938284;29;20208;-48
2021/07/14 00:09:07;;;;;;;2.47;1.25;;;15.40;99.90;;;;;;4938465;29;20290;-46
2021/07/14 00:11:40;;;;;;;2.13;1.75;;;15.40;99.90;;;;;;4938462;29;20302;-48
2021/07/14 00:14:27;;;;;;;2.35;1.90;;;15.40;99.90;;;;;;4938340;29;20306;-47
2021/07/14 00:22:29;;;;;;;1.70;1.60;;;15.40;99.90;;;;;;4938480;29;20216;-47
2021/07/14 00:24:57;;;;;;;3.00;1.73;;;15.40;99.90;;;;;;4938441;29;20315;-46
2021/07/14 00:27:27;;;;;;;3.15;1.60;;;15.40;99.90;;;;;;4938296;29;20235;-46
2021/07/14 00:29:56;;;;;;;1.67;1.50;;;15.30;99.90;;;;;;4938117;29;20252;-45
2021/07/14 00:32:24;;;;;;;1.92;1.77;;;15.30;99.90;;;;;;4938384;29;20222;-46
2021/07/14 00:34:53;;;;;;;2.40;1.40;;;15.20;99.90;;;;;;4938531;29;20223;-45
2021/07/14 00:37:22;;;;;;;1.67;1.58;;;15.20;99.90;;;;;;4938044;29;20328;-44
2021/07/14 00:39:55;;;;;;;2.88;2.60;;;15.10;99.90;;;;;;4938066;29;20259;-46
2021/07/14 00:42:23;;;;;;;4.93;1.65;;;15.10;99.90;;;;;;4937984;29;20216;-45
2021/07/14 00:44:54;;;;;;;1.90;1.77;;;15.10;99.90;;;;;;4937760;29;20214;-46
2021/07/14 00:47:27;;;;;;;1.77;1.45;;;15.10;99.90;;;;;;4938045;29;20208;-45
2021/07/14 00:49:56;;;;;;;1.90;1.60;;;15.10;99.90;;;;;;4937884;29;20212;-47
2021/07/14 00:52:24;;;;;;;1.63;1.48;;;15.00;99.90;;;;;;4937811;29;20298;-48
2021/07/14 00:54:53;;;;;;;4.28;1.73;;;15.00;99.90;;;;;;4937688;29;20335;-46
2021/07/14 00:57:24;;;;;;;2.95;1.90;;;15.00;99.90;;;;;;4937594;29;20236;-46
2021/07/14 00:59:54;;;;;;;2.65;1.63;;;15.00;99.90;;;;;;4938002;29;20216;-47
2021/07/14 01:02:22;;;;;;;3.28;1.70;;;15.00;99.90;;;;;;4937818;29;20259;-47
2021/07/14 01:04:56;;;;;;;3.00;1.70;;;15.00;99.90;;;;;;4937595;29;20208;-46
2021/07/14 01:07:28;;;;;;;3.67;2.00;;;15.00;99.90;;;;;;4936807;29;20243;-48
2021/07/14 01:10:01;;;;;;;2.38;1.67;;;15.10;99.90;;;;;;4937324;29;20380;-45
2021/07/14 01:12:43;;;;;;;5.47;1.60;;;15.10;99.90;;;;;;4937563;29;20216;-46
2021/07/14 01:15:16;;;;;;;3.00;2.05;;;15.10;99.90;;;;;;4937595;29;20306;-48
2021/07/14 01:17:50;;;;;;;4.95;2.10;;;15.10;99.90;;;;;;4937444;29;20645;-47
2021/07/14 01:20:33;;;;;;;3.83;1.98;;;15.10;99.90;;;;;;4937438;29;20238;-47
2021/07/14 01:23:10;;;;;;;3.17;1.95;;;15.10;99.90;;;;;;4937184;29;20216;-46
2021/07/14 01:25:53;;;;;;;4.25;2.45;;;15.10;99.90;;;;;;4937370;29;20215;-50
2021/07/14 01:28:26;;;;;;;2.97;1.48;;;15.10;99.90;;;;;;4937071;29;20612;-50
2021/07/14 01:30:55;;;;;;;4.63;2.10;;;15.10;99.90;;;;;;4937154;29;20211;-49
2021/07/14 01:33:28;;;;;;;2.55;1.95;;;15.10;99.90;;;;;;4936973;29;20271;-48
2021/07/14 01:35:58;;;;;;;2.95;1.60;;;15.10;99.90;;;;;;4937079;29;20303;-45
2021/07/14 01:38:28;;;;;;;2.85;1.70;;;15.00;99.90;;;;;;4937218;29;20232;-46
2021/07/14 01:40:56;;;;;;;3.38;1.92;;;15.00;99.90;;;;;;4936875;29;20372;-44
2021/07/14 01:43:27;;;;;;;3.35;2.08;;;15.00;99.90;;;;;;4937048;29;20294;-45
2021/07/14 01:45:57;;;;;;;4.05;2.08;;;15.00;99.90;;;;;;4936882;29;20208;-45
2021/07/14 01:48:26;;;;;;;2.78;2.00;;;15.00;99.90;;;;;;4936996;29;20260;-49
2021/07/14 01:50:54;;;;;;;2.28;1.80;;;15.00;99.90;;;;;;4936909;29;20303;-50
2021/07/14 01:53:24;;;;;;;3.70;1.60;;;15.00;99.90;;;;;;4936863;29;20307;-48
2021/07/14 01:55:55;;;;;;;2.33;2.13;;;15.00;99.90;;;;;;4936818;29;20216;-45
2021/07/14 01:58:27;;;;;;;2.97;1.70;;;14.90;99.90;;;;;;4936623;29;20228;-47
2021/07/14 02:00:56;;;;;;;3.25;1.95;;;14.90;99.90;;;;;;4936740;29;20620;-46
2021/07/14 02:03:56;;;;;;;3.95;2.50;;;14.90;99.90;;;;;;4936552;29;20696;-50
2021/07/14 02:06:25;;;;;;;2.95;1.75;;;14.80;99.90;;;;;;4936712;29;20295;-46
2021/07/14 02:08:53;;;;;;;1.77;1.55;;;14.80;99.90;;;;;;4936263;29;20239;-47
2021/07/14 02:11:25;;;;;;;1.73;1.55;;;14.80;99.90;;;;;;4936382;29;20683;-49
2021/07/14 02:13:55;;;;;;;1.13;1.08;;;14.80;99.90;;;;;;4936329;29;20212;-46
2021/07/14 02:16:24;;;;;;;2.33;1.55;;;14.80;99.90;;;;;;4936190;29;20216;-52
2021/07/14 02:18:56;;;;;;;3.58;2.13;;;14.80;99.90;;;;;;4936102;29;20242;-44
2021/07/14 02:21:26;;;;;;;1.92;1.23;;;14.80;99.90;;;;;;4936141;29;20243;-45
2021/07/14 02:23:54;;;;;;;1.90;1.52;;;14.80;99.90;;;;;;4936131;29;20208;-46
2021/07/14 02:26:22;;;;;;;1.30;1.20;;;14.80;99.90;;;;;;4936198;29;20262;-44
2021/07/14 02:28:50;;;;;;;2.75;1.50;;;14.80;99.90;;;;;;4935919;29;20208;-48
2021/07/14 02:31:19;;;;;;;2.38;1.10;;;14.80;99.90;;;;;;4936137;29;20294;-47
2021/07/14 02:33:47;;;;;;;1.55;1.45;;;14.70;99.90;;;;;;4936069;29;20216;-49
2021/07/14 02:36:18;;;;;;;1.58;1.48;;;14.70;99.90;;;;;;4936083;29;20215;-47
2021/07/14 02:38:52;;;;;;;3.00;1.30;;;14.70;99.90;;;;;;4935758;29;20346;-49
2021/07/14 02:41:26;;;;;;;1.90;1.13;;;14.70;99.90;;;;;;4935719;29;20240;-48
2021/07/14 02:43:58;;;;;;;1.45;1.35;;;14.70;99.90;;;;;;4935950;29;20475;-45
2021/07/14 02:46:30;;;;;;;1.17;1.08;;;14.70;99.90;;;;;;4935717;29;20223;-47
2021/07/14 02:49:02;;;;;;;1.67;1.40;;;14.70;99.90;;;;;;4935812;29;20212;-46
2021/07/14 02:51:32;;;;;;;1.52;1.35;;;14.70;99.90;;;;;;4935531;29;20308;-48
2021/07/14 02:54:02;;;;;;;1.45;1.13;;;14.60;99.90;;;;;;4936014;29;20201;-48
2021/07/14 02:56:32;;;;;;;3.08;1.08;;;14.70;99.90;;;;;;4935637;29;20240;-48
2021/07/14 02:59:04;;;;;;;4.47;1.27;;;14.70;99.90;;;;;;4935631;29;20363;-46
2021/07/14 03:01:35;;;;;;;2.60;1.35;;;14.60;99.90;;;;;;4935820;29;20219;-49
2021/07/14 03:04:05;;;;;;;1.42;1.33;;;14.60;99.90;;;;;;4935627;29;20215;-46
2021/07/14 03:06:35;;;;;;;4.15;1.40;;;14.60;99.90;;;;;;4935431;29;20222;-48
2021/07/14 03:09:04;;;;;;;2.55;1.40;;;14.60;99.90;;;;;;4935292;29;20751;-46
2021/07/14 03:11:35;;;;;;;1.30;1.20;;;14.60;99.90;;;;;;4935482;29;20303;-47
2021/07/14 03:14:05;;;;;;;2.97;1.73;;;14.60;99.90;;;;;;4935220;29;20222;-47
2021/07/14 03:16:36;;;;;;;1.33;1.23;;;14.60;99.90;;;;;;4935288;29;20307;-47
2021/07/14 03:19:06;;;;;;;1.42;1.20;;;14.50;99.90;;;;;;4935120;29;20275;-47
2021/07/14 03:21:35;;;;;;;1.25;1.15;;;14.50;99.90;;;;;;4935162;29;20300;-50
2021/07/14 03:24:08;;;;;;;2.03;1.75;;;14.50;99.90;;;;;;4934462;29;20208;-45
2021/07/14 03:26:37;;;;;;;1.50;1.40;;;14.50;99.90;;;;;;4935091;29;20226;-48
2021/07/14 03:29:06;;;;;;;2.40;1.33;;;14.50;99.90;;;;;;4935159;29;20271;-46
2021/07/14 03:31:36;;;;;;;2.38;1.35;;;14.40;99.90;;;;;;4934220;29;20723;-48
2021/07/14 03:34:04;;;;;;;1.30;1.20;;;14.40;99.90;;;;;;4934868;29;20306;-45
2021/07/14 03:36:32;;;;;;;2.85;1.42;;;14.40;99.90;;;;;;4934860;29;20216;-45
2021/07/14 03:39:02;;;;;;;2.55;1.55;;;14.30;99.90;;;;;;4934833;29;20235;-50
2021/07/14 03:41:30;;;;;;;1.90;1.50;;;14.30;99.90;;;;;;4934832;29;20212;-46
2021/07/14 03:43:59;;;;;;;1.52;1.42;;;14.30;99.90;;;;;;4934986;29;20691;-44
2021/07/14 03:46:27;;;;;;;3.28;1.27;;;14.30;99.90;;;;;;4934744;29;20212;-45
2021/07/14 03:48:57;;;;;;;2.92;1.75;;;14.30;99.90;;;;;;4934900;29;20274;-45
2021/07/14 03:51:26;;;;;;;2.63;1.63;;;14.30;99.90;;;;;;4935012;29;20631;-48
2021/07/14 03:53:55;;;;;;;3.80;1.90;;;14.30;99.90;;;;;;4934644;29;20303;-47
2021/07/14 03:56:24;;;;;;;6.57;1.80;;;14.30;99.90;;;;;;4934735;29;20220;-47
2021/07/14 03:58:53;;;;;;;6.88;2.60;;;14.30;99.90;;;;;;4934670;29;20680;-48
2021/07/14 04:01:23;;;;;;;1.98;1.83;;;14.30;99.90;;;;;;4934384;29;20578;-50
2021/07/14 04:03:52;;;;;;;2.58;1.80;;;14.30;99.90;;;;;;4934420;29;20706;-45
2021/07/14 04:06:22;;;;;;;3.38;1.58;;;14.30;99.90;;;;;;4934440;29;20208;-47
2021/07/14 04:09:20;;;;;;;2.63;1.70;;;14.40;99.90;;;;;;4934034;29;20242;-47
2021/07/14 04:11:50;;;;;;;2.33;1.80;;;14.40;99.90;;;;;;4931436;29;20387;-49
2021/07/14 04:14:18;;;;;;;1.45;1.30;;;14.50;99.90;;;;;;4934669;29;20675;-45
2021/07/14 04:16:46;;;;;;;2.17;1.98;;;14.50;99.90;;;;;;4934449;29;20310;-45
2021/07/14 04:19:15;;;;;;;2.03;1.80;;;14.50;99.90;;;;;;4934072;29;20232;-47
2021/07/14 04:21:44;;;;;;;2.53;2.00;;;14.50;99.90;;;;;;4934216;29;20302;-50
2021/07/14 04:24:12;;;;;;;3.10;2.03;;;14.60;99.90;;;;;;4934393;29;20795;-46
2021/07/14 04:26:40;;;;;;;3.75;1.83;;;14.60;99.90;;;;;;4934487;29;20303;-47
2021/07/14 04:29:09;;;;;;;1.88;1.70;;;14.60;99.90;;;;;;4934584;29;20236;-48
2021/07/14 04:31:38;;;;;;;2.30;1.90;;;14.60;99.90;;;;;;4934535;29;20216;-49
2021/07/14 04:34:06;;;;;;;5.13;2.30;;;14.70;99.90;;;;;;4934860;29;20216;-47
2021/07/14 04:36:34;;;;;;;4.43;2.38;;;14.70;99.90;;;;;;4934626;29;20304;-48
2021/07/14 04:39:04;;;;;;;2.83;1.80;;;14.70;99.90;;;;;;4934305;29;20234;-47
2021/07/14 04:41:32;;;;;;;2.92;2.05;;;14.60;99.90;;;;;;4934462;29;20299;-49
2021/07/14 04:44:02;;;;;;;2.63;2.42;;;14.60;99.90;;;;;;4937689;29;20228;-48
2021/07/14 04:46:31;;;;;;;2.97;2.00;;;14.70;99.90;;;;;;4938204;29;20228;-50
2021/07/14 04:48:59;;;;;;;5.32;2.17;;;14.60;99.90;;;;;;4938125;29;20212;-46
2021/07/14 04:51:27;;;;;;;5.75;3.13;;;14.70;99.90;;;;;;4937980;29;20291;-50
2021/07/14 04:53:56;;;;;;;3.55;1.85;;;14.70;99.90;;;;;;4938004;29;20216;-47
2021/07/14 04:56:25;;;;;;;2.33;2.13;;;14.70;99.90;;;;;;4937728;29;20330;-47
2021/07/14 04:58:53;;;;;;;3.65;2.10;;;14.70;99.90;;;;;;4937528;29;20654;-46
2021/07/14 05:01:21;;;;;;;2.10;1.83;;;14.80;99.90;;;;;;4937926;29;20583;-51
2021/07/14 05:03:49;;;;;;;2.65;1.17;;;14.70;99.90;;;;;;4937500;29;20710;-49
2021/07/14 05:06:18;;;;;;;1.95;1.73;;;14.70;99.90;;;;;;4937631;29;20208;-48
2021/07/14 05:08:47;;;;;;;3.58;1.83;;;14.80;99.90;;;;;;4937348;29;20338;-45
2021/07/14 05:11:16;;;;;;;2.28;1.70;;;14.80;99.90;;;;;;4937363;29;20215;-48
2021/07/14 05:13:45;;;;;;;3.00;1.58;;;14.80;99.90;;;;;;4937397;29;20251;-46
2021/07/14 05:16:13;;;;;;;2.92;1.90;;;14.80;99.90;;;;;;4937437;29;20247;-51
2021/07/14 05:18:41;;;;;;;7.20;2.15;;;14.90;99.90;;;;;;4937303;29;20243;-49
2021/07/14 05:21:09;;;;;;;3.80;1.77;;;14.90;99.90;;;;;;4937305;29;20327;-49
2021/07/14 05:23:37;;;;;;;4.30;1.50;;;14.90;99.90;;;;;;4937308;29;20212;-45
2021/07/14 05:26:08;;;;;;;1.65;1.55;;;14.90;99.90;;;;;;4938060;29;20243;-46
2021/07/14 05:28:39;;;;;;;1.77;1.67;;;14.90;99.90;;;;;;4936560;29;20287;-46
2021/07/14 05:31:08;;;;;;;2.65;1.77;;;15.00;99.90;;;;;;4937060;29;20295;-44
2021/07/14 05:33:36;;;;;;;4.25;2.75;;;15.10;99.90;;;;;;4937159;29;20268;-46
2021/07/14 05:36:04;;;;;;;2.28;2.08;;;15.20;99.90;;;;;;4937020;29;20299;-48
2021/07/14 05:38:32;;;;;;;2.20;1.52;;;15.20;99.90;;;;;;4937005;29;20640;-42
2021/07/14 05:41:01;;;;;;;3.35;2.15;;;15.20;99.90;;;;;;4937058;29;20235;-46
2021/07/14 05:43:29;;;;;;;2.45;2.25;;;15.30;99.90;;;;;;4936876;29;20249;-45
2021/07/14 05:45:57;;;;;;;4.13;2.00;;;15.30;99.90;;;;;;4938296;29;20240;-48
2021/07/14 05:48:26;;;;;;;2.80;2.10;;;15.40;99.90;;;;;;4936902;29;20271;-47
2021/07/14 05:50:55;;;;;;;2.20;1.95;;;15.40;99.90;;;;;;4936733;29;20291;-46
2021/07/14 05:53:24;;;;;;;5.15;2.03;;;15.50;99.90;;;;;;4936382;29;20216;-49
2021/07/14 05:55:52;;;;;;;2.72;2.00;;;15.50;99.90;;;;;;4936108;29;20240;-45
2021/07/14 05:58:20;;;;;;;2.42;2.05;;;15.50;99.90;;;;;;4936589;29;20751;-46
2021/07/14 06:00:48;;;;;;;2.92;2.10;;;15.50;99.90;;;;;;4936677;29;20259;-49
2021/07/14 06:03:16;;;;;;;1.70;1.60;;;15.60;99.90;;;;;;4936517;29;20243;-48
2021/07/14 06:05:45;;;;;;;3.03;2.03;;;15.60;99.90;;;;;;4936649;29;20289;-51
2021/07/14 06:08:13;;;;;;;5.15;2.05;;;15.60;99.90;;;;;;4936447;29;20236;-47
2021/07/14 06:10:41;;;;;;;3.58;1.98;;;15.70;99.90;;;;;;4936458;29;20259;-51
2021/07/14 06:13:10;;;;;;;5.72;2.22;;;15.80;99.90;;;;;;4937742;29;20216;-49
2021/07/14 06:15:38;;;;;;;2.47;2.05;;;16.00;99.90;;;;;;4935993;29;20279;-49
2021/07/14 06:18:06;;;;;;;4.55;2.05;;;16.00;99.90;;;;;;4935803;29;20240;-52
2021/07/14 06:20:35;;;;;;;2.17;1.98;;;16.10;99.90;;;;;;4935802;29;20235;-49
2021/07/14 06:23:04;;;;;;;2.72;2.40;;;16.20;99.90;;;;;;4935863;29;20216;-51
2021/07/14 06:25:32;;;;;;;2.50;2.30;;;16.30;99.90;;;;;;4935731;29;20299;-51
2021/07/14 06:28:02;;;;;;;2.70;2.40;;;16.30;99.90;;;;;;4935551;29;20215;-50
2021/07/14 06:30:30;;;;;;;7.18;2.67;;;16.30;99.90;;;;;;4935601;29;20606;-50
2021/07/14 06:32:58;;;;;;;3.53;2.50;;;16.30;99.90;;;;;;4935688;29;20216;-51
2021/07/14 06:35:27;;;;;;;5.05;3.08;;;16.30;99.90;;;;;;4935440;29;20216;-47
2021/07/14 06:37:55;;;;;;;2.30;2.10;;;16.30;99.90;;;;;;4935475;29;20216;-50
2021/07/14 06:40:24;;;;;;;2.28;2.03;;;16.30;99.90;;;;;;4935494;29;20322;-46
2021/07/14 06:42:52;;;;;;;2.88;2.45;;;16.20;99.90;;;;;;4935573;29;20270;-50
2021/07/14 06:45:23;;;;;;;3.50;2.28;;;16.30;99.90;;;;;;4935693;29;20213;-50
2021/07/14 06:47:55;;;;;;;7.40;2.15;;;16.40;99.90;;;;;;4935643;29;20574;-49
2021/07/14 06:50:24;;;;;;;4.45;2.08;;;16.60;99.90;;;;;;4935641;29;20630;-47
2021/07/14 06:52:52;;;;;;;2.42;2.22;;;16.80;99.90;;;;;;4935464;29;20229;-48
2021/07/14 06:55:20;;;;;;;3.72;2.30;;;17.10;99.90;;;;;;4935474;29;20303;-50
2021/07/14 06:57:49;;;;;;;2.38;2.10;;;17.40;99.90;;;;;;4935569;29;20319;-50
2021/07/14 07:00:18;;;;;;;4.10;2.40;;;17.60;99.90;;;;;;4935368;29;20652;-49
2021/07/14 07:02:45;;;;;;;3.22;2.25;;;17.70;99.90;;;;;;4935139;29;20758;-49
2021/07/14 07:05:13;;;;;;;3.33;2.25;;;17.80;99.90;;;;;;4934954;29;20699;-48
2021/07/14 07:07:41;;;;;;;2.47;1.98;;;17.80;99.90;;;;;;4935070;29;20343;-49
2021/07/14 07:10:11;;;;;;;3.92;2.47;;;17.70;99.90;;;;;;4935098;29;20248;-51
2021/07/14 07:12:39;;;;;;;3.05;2.70;;;17.70;99.90;;;;;;4935155;29;20216;-49
2021/07/14 07:15:13;;;;;;;2.45;2.25;;;17.60;99.90;;;;;;4935220;29;20212;-49
2021/07/14 07:17:41;;;;;;;2.47;2.10;;;17.60;99.90;;;;;;4934777;29;20660;-50
2021/07/14 07:20:10;;;;;;;3.58;1.98;;;17.50;99.90;;;;;;4934582;29;20222;-51
2021/07/14 07:22:38;;;;;;;3.28;2.63;;;17.50;99.90;;;;;;4934797;29;20752;-52
2021/07/14 07:25:07;;;;;;;3.03;2.72;;;17.40;99.90;;;;;;4934781;29;20303;-51
2021/07/14 07:27:35;;;;;;;3.10;2.30;;;17.40;99.90;;;;;;4934645;29;20219;-48
2021/07/14 07:30:05;;;;;;;4.22;2.92;;;17.30;99.90;;;;;;4934835;29;20216;-48
2021/07/14 07:32:35;;;;;;;2.55;2.35;;;17.30;99.90;;;;;;4934775;29;20218;-51
2021/07/14 07:35:04;;;;;;;2.03;1.92;;;17.30;99.90;;;;;;4934403;29;20299;-48
2021/07/14 07:37:32;;;;;;;5.20;2.58;;;17.20;99.90;;;;;;4934778;29;20764;-51
2021/07/14 07:40:00;;;;;;;3.45;2.08;;;17.30;99.90;;;;;;4934668;29;20219;-48
2021/07/14 07:42:28;;;;;;;2.42;2.20;;;17.30;99.90;;;;;;4934526;29;20335;-51
2021/07/14 07:44:56;;;;;;;3.88;2.00;;;17.40;99.90;;;;;;4934611;29;20239;-50
2021/07/14 07:47:24;;;;;;;2.25;2.03;;;17.60;99.90;;;;;;4934540;29;20235;-48
2021/07/14 07:49:54;;;;;;;3.72;2.50;;;17.70;99.90;;;;;;4934417;29;20676;-50
2021/07/14 07:52:27;;;;;;;2.67;2.47;;;17.90;99.90;;;;;;4934447;29;20208;-51
2021/07/14 07:54:55;;;;;;;4.22;2.33;;;18.00;99.90;;;;;;4934503;29;20222;-51
2021/07/14 07:57:24;;;;;;;2.30;2.10;;;18.20;99.90;;;;;;4934603;29;20299;-49
2021/07/14 07:59:53;;;;;;;5.10;1.70;;;18.40;99.90;;;;;;4934427;29;20262;-53
2021/07/14 08:02:21;;;;;;;2.85;2.13;;;18.40;99.90;;;;;;4934182;29;20236;-52
2021/07/14 08:04:49;;;;;;;3.08;2.20;;;18.50;99.90;;;;;;4934647;29;20323;-53
2021/07/14 08:07:18;;;;;;;2.22;2.03;;;18.60;99.90;;;;;;4934206;29;20707;-52
2021/07/14 08:09:46;;;;;;;2.35;2.15;;;18.70;99.90;;;;;;4934528;29;20287;-49
2021/07/14 08:12:14;;;;;;;2.33;1.65;;;18.80;99.90;;;;;;4934386;29;20208;-46
2021/07/14 08:14:42;;;;;;;3.50;2.28;;;18.90;99.90;;;;;;4934144;29;20588;-51
2021/07/14 08:17:10;;;;;;;2.17;1.98;;;19.10;99.90;;;;;;4935116;29;20212;-52
2021/07/14 08:19:38;;;;;;;4.07;2.50;;;19.30;99.90;;;;;;4938278;29;20218;-51
2021/07/14 08:22:06;;;;;;;3.40;2.38;;;19.30;99.90;;;;;;4938007;29;20319;-49
2021/07/14 08:24:36;;;;;;;2.40;2.20;;;19.30;99.90;;;;;;4937960;29;20263;-52
2021/07/14 08:27:04;;;;;;;2.00;1.90;;;19.30;99.90;;;;;;4937842;29;20299;-48
2021/07/14 08:29:37;;;;;;;3.20;2.17;;;19.30;99.90;;;;;;4938240;29;20216;-52
2021/07/14 08:32:06;;;;;;;3.85;2.58;;;19.40;99.90;;;;;;4937904;29;20294;-51
2021/07/14 08:34:34;;;;;;;2.40;2.20;;;19.50;99.90;;;;;;4937950;29;20264;-49
2021/07/14 08:37:02;;;;;;;3.53;2.50;;;19.70;99.90;;;;;;4937852;29;20219;-52
2021/07/14 08:39:30;;;;;;;2.40;2.20;;;20.00;99.90;;;;;;4937697;29;20672;-51
2021/07/14 08:42:02;;;;;;;2.20;2.00;;;20.10;99.90;;;;;;4937810;29;20232;-51
2021/07/14 08:44:30;;;;;;;3.13;2.13;;;20.10;99.90;;;;;;4938017;29;20759;-48
2021/07/14 08:46:59;;;;;;;3.63;2.38;;;20.20;99.90;;;;;;4937920;29;20236;-48
2021/07/14 08:49:29;;;;;;;2.92;2.25;;;20.40;99.90;;;;;;4937973;29;20299;-50
2021/07/14 08:51:57;;;;;;;3.13;1.88;;;20.50;99.90;;;;;;4937720;29;20739;-50
2021/07/14 08:54:26;;;;;;;5.88;3.40;;;20.60;99.90;;;;;;4937604;29;20228;-51
2021/07/14 08:56:54;;;;;;;4.93;2.63;;;20.50;99.90;;;;;;4937484;29;20227;-48
2021/07/14 08:59:24;;;;;;;6.90;2.08;;;20.50;99.90;;;;;;4937507;29;20212;-47
2021/07/14 09:01:52;;;;;;;6.57;2.70;;;20.50;99.90;;;;;;4937527;29;20260;-47
2021/07/14 09:04:20;;;;;;;3.95;2.25;;;20.60;99.90;;;;;;4937463;29;20216;-48
2021/07/14 09:06:48;;;;;;;4.45;2.33;;;20.60;99.90;;;;;;4937144;29;20664;-46
2021/07/14 09:09:17;;;;;;;2.78;2.30;;;20.60;99.90;;;;;;4937423;29;20690;-49
2021/07/14 09:11:52;;;;;;;2.45;2.10;;;20.50;99.90;;;;;;4937323;29;20275;-48
2021/07/14 09:14:30;;;;;;;2.55;2.15;;;20.50;99.90;;;;;;4937293;29;20290;-47
2021/07/14 09:16:59;;;;;;;2.97;1.90;;;20.60;99.90;;;;;;4937373;29;20588;-47
2021/07/14 09:19:30;;;;;;;1.98;1.83;;;20.60;99.90;;;;;;4937083;29;20315;-46
2021/07/14 09:21:59;;;;;;;3.40;1.80;;;20.60;99.90;;;;;;4937055;29;20743;-48
2021/07/14 09:24:31;;;;;;;2.20;1.95;;;20.70;99.90;;;;;;4937130;29;20267;-50
2021/07/14 09:27:00;;;;;;;1.83;1.73;;;20.90;99.90;;;;;;4936963;29;20578;-48
2021/07/14 09:29:31;;;;;;;2.13;1.92;;;20.90;99.90;;;;;;4935525;29;20687;-49
2021/07/14 09:31:58;;;;;;;2.42;2.22;;;20.90;99.90;;;;;;4936756;29;20299;-47
2021/07/14 09:34:29;;;;;;;3.63;2.50;;;21.00;99.90;;;;;;4936840;29;20215;-51
2021/07/14 09:37:00;;;;;;;3.20;1.90;;;21.20;99.90;;;;;;4936918;29;20212;-47
2021/07/14 09:39:34;;;;;;;3.22;2.05;;;21.40;99.90;;;;;;4936758;29;20214;-48
2021/07/14 09:42:08;;;;;;;2.80;1.80;;;21.50;99.90;;;;;;4936456;29;20264;-51
2021/07/14 09:44:45;;;;;;;2.67;2.20;;;21.70;99.90;;;;;;4936490;29;20513;-50
2021/07/14 09:47:18;;;;;;;2.00;1.80;;;21.80;99.90;;;;;;4936719;29;20219;-49
2021/07/14 09:49:46;;;;;;;2.10;1.90;;;22.00;99.90;;;;;;4936631;29;20238;-48
2021/07/14 09:52:19;;;;;;;2.20;2.10;;;22.10;99.90;;;;;;4936346;29;20218;-49
2021/07/14 09:54:47;;;;;;;6.43;2.30;;;22.20;99.70;;;;;;4936402;29;20267;-51
2021/07/14 09:57:17;;;;;;;2.10;1.90;;;22.20;99.50;;;;;;4936588;29;20307;-49
2021/07/14 09:59:48;;;;;;;2.13;1.70;;;22.40;99.40;;;;;;4936528;29;20219;-50
2021/07/14 10:02:17;;;;;;;5.07;2.25;;;22.50;99.20;;;;;;4936014;29;20734;-48
2021/07/14 10:04:47;;;;;;;5.05;2.67;;;22.50;99.00;;;;;;4935979;29;20247;-47
2021/07/14 10:07:18;;;;;;;4.45;2.80;;;22.40;99.00;;;;;;4935853;29;20247;-46
2021/07/14 10:09:47;;;;;;;4.47;2.45;;;22.30;98.90;;;;;;4936007;29;20558;-47
2021/07/14 10:12:29;;;;;;;2.60;2.33;;;22.20;98.80;;;;;;4936134;29;20212;-46
2021/07/14 10:15:18;;;;;;;3.33;2.25;;;22.10;98.80;;;;;;4936094;29;20302;-48
2021/07/14 10:17:47;;;;;;;4.22;2.03;;;22.10;98.90;;;;;;4936149;29;20218;-48
2021/07/14 10:20:29;;;;;;;3.47;2.10;;;22.00;99.10;;;;;;4935856;29;20279;-47
2021/07/14 10:22:59;;;;;;;2.05;1.85;;;22.00;99.10;;;;;;4935860;29;20232;-44
2021/07/14 10:25:28;;;;;;;3.78;2.10;;;22.00;99.10;;;;;;4935853;29;20212;-44
2021/07/14 10:27:58;;;;;;;5.68;2.40;;;22.10;99.00;;;;;;4935672;29;20587;-48
2021/07/14 10:30:28;;;;;;;3.90;2.08;;;22.10;98.60;;;;;;4935504;29;20353;-49
2021/07/14 10:32:57;;;;;;;2.10;1.90;;;22.00;98.60;;;;;;4936008;29;20217;-44
2021/07/14 10:35:28;;;;;;;1.92;1.77;;;21.90;98.60;;;;;;4935898;29;20223;-46
2021/07/14 10:38:16;;;;;;;4.15;1.73;;;21.80;98.30;;;;;;4935509;29;20216;-44
2021/07/14 10:40:46;;;;;;;3.38;2.00;;;21.50;98.50;;;;;;4935188;29;20676;-43
2021/07/14 10:43:16;;;;;;;2.40;1.90;;;21.40;98.60;;;;;;4935361;29;20888;-43
2021/07/14 10:45:49;;;;;;;3.53;2.60;;;21.40;98.70;;;;;;4935463;29;20666;-43
2021/07/14 10:48:19;;;;;;;4.03;1.98;;;21.40;98.40;;;;;;4935242;29;20268;-45
2021/07/14 10:50:48;;;;;;;2.25;2.05;;;21.50;98.40;;;;;;4935168;29;20696;-47
2021/07/14 10:53:21;;;;;;;2.42;1.83;;;21.60;98.30;;;;;;4935258;29;20208;-44
2021/07/14 10:55:51;;;;;;;5.53;2.30;;;21.60;98.30;;;;;;4935192;29;20212;-45
2021/07/14 10:58:21;;;;;;;3.17;1.80;;;21.60;98.20;;;;;;4935046;29;20628;-44
2021/07/14 11:00:50;;;;;;;2.78;2.45;;;21.70;98.00;;;;;;4935230;29;20275;-44
2021/07/14 11:03:47;;;;;;;2.33;2.13;;;21.80;97.80;;;;;;4934894;29;20224;-43
2021/07/14 11:06:16;;;;;;;2.55;1.60;;;21.90;96.70;;;;;;4934332;29;20219;-47
2021/07/14 11:08:47;;;;;;;3.20;2.33;;;22.00;97.20;;;;;;4935097;29;20299;-44
2021/07/14 11:11:17;;;;;;;2.17;1.65;;;22.10;96.90;;;;;;4935021;29;20248;-44
2021/07/14 11:13:46;;;;;;;1.90;1.52;;;22.30;96.30;;;;;;4935080;29;20295;-48
2021/07/14 11:16:28;;;;;;;1.92;1.40;;;22.40;96.00;;;;;;4935187;29;20243;-44
2021/07/14 11:19:01;;;;;;;1.55;1.42;;;22.60;95.40;;;;;;4934969;29;20582;-45
2021/07/14 11:21:48;;;;;;;1.77;1.60;;;22.80;95.10;;;;;;4934867;29;20222;-44
2021/07/14 11:24:51;;;;;;;1.48;1.38;;;22.80;95.00;;;;;;4935030;29;20228;-52
2021/07/14 11:27:44;;;;;;;3.15;1.80;;;22.70;94.80;;;;;;4932340;29;20207;-52
2021/07/14 11:30:31;;;;;;;3.65;1.83;;;22.60;95.00;;;;;;4934524;29;20291;-49
2021/07/14 11:33:02;;;;;;;2.50;1.50;;;22.60;95.20;;;;;;4934601;29;20244;-45
2021/07/14 11:35:47;;;;;;;2.63;1.40;;;22.80;95.10;;;;;;4934111;29;20625;-48
2021/07/14 11:38:17;;;;;;;1.83;1.58;;;23.00;93.90;;;;;;4934832;29;20742;-53
2021/07/14 11:40:47;;;;;;;1.77;1.63;;;23.20;94.20;;;;;;4934302;29;20244;-49
2021/07/14 11:43:19;;;;;;;1.70;1.60;;;23.40;93.80;;;;;;4934639;29;20232;-47
2021/07/14 11:45:48;;;;;;;1.85;1.60;;;23.50;93.70;;;;;;4934771;29;20223;-50
2021/07/14 11:48:28;;;;;;;2.63;1.52;;;23.60;93.70;;;;;;4934942;29;20216;-52
2021/07/14 11:50:57;;;;;;;1.50;1.40;;;23.70;93.20;;;;;;4934658;29;20222;-46
2021/07/14 11:53:44;;;;;;;2.70;1.58;;;23.80;93.30;;;;;;4933789;29;20336;-46
2021/07/14 11:56:15;;;;;;;2.15;1.55;;;24.20;92.20;;;;;;4934668;29;20223;-51
2021/07/14 11:59:01;;;;;;;1.55;1.45;;;24.10;92.30;;;;;;4934786;29;20246;-48
2021/07/14 12:02:04;;;;;;;3.80;1.65;;;23.90;91.40;;;;;;4934998;29;20216;-47
2021/07/14 12:04:41;;;;;;;1.63;1.52;;;23.70;91.90;;;;;;4913533;29;20232;-48
2021/07/14 12:07:15;;;;;;;2.17;1.88;;;23.60;92.30;;;;;;4934748;29;20287;-52
2021/07/14 12:09:46;;;;;;;1.70;1.52;;;23.50;92.40;;;;;;4934469;29;20254;-48
2021/07/14 12:12:17;;;;;;;2.20;2.00;;;23.40;92.70;;;;;;4934372;29;20699;-48
2021/07/14 12:14:47;;;;;;;1.98;1.73;;;23.10;93.30;;;;;;4934725;29;20215;-47
2021/07/14 12:17:16;;;;;;;2.65;2.10;;;22.70;93.90;;;;;;4934451;29;20212;-47
2021/07/14 12:19:47;;;;;;;2.00;1.58;;;22.40;94.50;;;;;;4934510;29;20255;-48
2021/07/14 12:22:18;;;;;;;5.63;1.90;;;22.20;95.00;;;;;;4934218;29;20274;-50
2021/07/14 12:24:49;;;;;;;2.28;1.90;;;22.00;95.40;;;;;;4934125;29;20308;-50
2021/07/14 12:27:21;;;;;;;3.80;1.70;;;21.80;95.60;;;;;;4933967;29;20544;-51
2021/07/14 12:29:52;;;;;;;3.70;1.80;;;21.70;95.90;;;;;;4933894;29;20321;-48
2021/07/14 12:32:30;;;;;;;2.72;1.77;;;21.60;96.10;;;;;;4933861;29;20651;-49
2021/07/14 12:35:01;;;;;;;2.05;1.95;;;21.50;96.30;;;;;;4933839;29;20287;-52
2021/07/14 12:37:29;;;;;;;2.45;2.25;;;21.40;96.50;;;;;;4934080;29;20219;-50
2021/07/14 12:39:57;;;;;;;3.53;2.28;;;21.20;96.70;;;;;;4934138;29;20239;-50
2021/07/14 12:42:25;;;;;;;2.30;1.73;;;21.20;96.90;;;;;;4933790;29;20569;-53
2021/07/14 12:44:53;;;;;;;1.85;1.65;;;21.20;97.10;;;;;;4933830;29;20410;-53
2021/07/14 12:47:23;;;;;;;2.35;2.13;;;21.20;97.30;;;;;;4934006;29;20223;-48
2021/07/14 12:49:53;;;;;;;4.38;2.15;;;21.10;97.30;;;;;;4933912;29;20302;-50
2021/07/14 12:52:23;;;;;;;1.95;1.80;;;21.00;97.60;;;;;;4934102;29;20216;-51
2021/07/14 12:54:56;;;;;;;2.10;2.00;;;20.80;97.90;;;;;;4934100;29;20208;-48
2021/07/14 12:57:27;;;;;;;4.75;1.85;;;20.70;98.10;;;;;;4934089;29;20632;-51
2021/07/14 13:00:01;;;;;;;1.95;1.80;;;20.70;98.30;;;;;;4933873;29;20622;-50
2021/07/14 13:02:37;;;;;;;3.03;2.08;;;20.70;98.30;;;;;;4933949;29;20711;-48
2021/07/14 13:05:07;;;;;;;2.97;2.00;;;20.80;98.30;;;;;;4937267;29;20318;-48
2021/07/14 13:07:37;;;;;;;10.63;2.30;;;20.90;98.10;;;;;;4937202;29;20248;-50
2021/07/14 13:10:08;;;;;;;2.05;1.85;;;21.00;98.00;;;;;;4937263;29;20259;-47
2021/07/14 13:12:36;;;;;;;3.60;2.17;;;21.00;97.90;;;;;;4937094;29;20690;-49